Time;durP1;ratioP1;P1;durP2;ratioP2;P2;SDS_P1;SDS_P2;PMS_P1;PMS_P2;Temp;Humidity;BMP_temperature;BMP_pressure;BME280_temperature;BME280_humidity;BME280_pressure;Samples;Min_cycle;Max_cycle;Signal;HPM_P1;HPM_P2
2021/10/23 00:02:07;;;;;;;22.10;9.70;;;;;;;9.16;60.22;99212.66;116532;1201;22336;-61
2021/10/23 00:04:38;;;;;;;17.30;8.20;;;;;;;9.19;59.86;99211.83;116435;1201;137649;-61
2021/10/23 00:07:06;;;;;;;17.40;7.80;;;;;;;9.22;59.63;99213.28;116458;1201;22296;-61
2021/10/23 00:09:38;;;;;;;18.60;7.60;;;;;;;9.25;59.52;99213.12;116501;1201;22331;-62
2021/10/23 00:12:26;;;;;;;17.90;7.90;;;;;;;9.28;59.57;99204.08;116403;1201;137143;-62
2021/10/23 00:14:54;;;;;;;14.00;7.50;;;;;;;9.30;59.41;99196.70;116635;1201;22261;-62
2021/10/23 00:17:23;;;;;;;17.20;7.40;;;;;;;9.31;59.30;99193.83;116478;1201;137086;-63
2021/10/23 00:20:09;;;;;;;17.30;7.40;;;;;;;9.31;59.20;99191.55;116570;1200;22476;-62
2021/10/23 00:22:37;;;;;;;12.80;7.20;;;;;;;9.28;59.08;99184.34;116458;1201;137254;-61
2021/10/23 00:25:05;;;;;;;18.60;8.10;;;;;;;9.28;58.92;99185.69;116499;1201;22256;-62
2021/10/23 00:27:33;;;;;;;15.50;8.50;;;;;;;9.26;58.68;99187.85;116561;1201;22812;-61
2021/10/23 00:30:03;;;;;;;15.60;7.80;;;;;;;9.22;58.76;99184.40;116464;1201;138043;-62
2021/10/23 00:32:32;;;;;;;16.30;7.80;;;;;;;9.18;58.70;99180.27;116485;1201;22528;-62
2021/10/23 00:35:02;;;;;;;13.90;8.00;;;;;;;9.13;58.72;99175.66;116342;1201;137196;-62
2021/10/23 00:37:31;;;;;;;17.80;7.80;;;;;;;9.07;58.70;99177.02;116538;1202;23545;-62
2021/10/23 00:39:59;;;;;;;24.30;7.00;;;;;;;9.01;58.53;99178.76;116464;1200;22176;-62
2021/10/23 00:42:28;;;;;;;17.70;7.00;;;;;;;8.95;58.51;99179.77;116367;1202;136803;-62
2021/10/23 00:44:56;;;;;;;22.00;7.70;;;;;;;8.88;58.47;99181.83;116493;1202;22303;-62
2021/10/23 00:47:24;;;;;;;17.60;7.50;;;;;;;8.79;58.48;99181.35;116394;1202;137448;-62
2021/10/23 00:49:53;;;;;;;16.10;8.10;;;;;;;8.69;58.47;99181.98;116492;1202;23120;-62
2021/10/23 00:52:22;;;;;;;19.40;7.90;;;;;;;8.60;58.61;99191.92;116475;1202;22328;-62
2021/10/23 00:54:51;;;;;;;25.60;8.30;;;;;;;8.49;58.85;99189.51;116418;1201;136935;-62
2021/10/23 00:57:19;;;;;;;17.00;7.70;;;;;;;8.39;58.90;99189.55;116497;1202;22342;-61
2021/10/23 00:59:48;;;;;;;14.10;6.80;;;;;;;8.30;59.01;99189.02;116399;1203;138089;-62
2021/10/23 01:02:17;;;;;;;16.30;7.00;;;;;;;8.19;59.14;99190.17;116484;1203;22325;-62
2021/10/23 01:04:46;;;;;;;13.80;7.70;;;;;;;8.09;59.36;99196.98;116402;1194;137944;-62
2021/10/23 01:07:14;;;;;;;20.40;7.50;;;;;;;7.97;59.66;99200.65;116531;1202;22977;-62
2021/10/23 01:10:01;;;;;;;14.80;6.80;;;;;;;7.83;59.58;99200.45;116510;1202;22277;-62
2021/10/23 01:12:29;;;;;;;23.80;7.40;;;;;;;7.70;59.82;99199.42;116352;1201;137755;-61
2021/10/23 01:15:29;;;;;;;;;;;;;;;7.58;60.03;99197.23;116517;1202;22360;-62
2021/10/23 01:17:57;;;;;;;41.90;8.10;;;;;;;7.47;60.30;99200.52;116416;1202;125682;-62
2021/10/23 01:20:25;;;;;;;20.60;8.40;;;;;;;7.37;60.39;99198.34;116491;1201;22294;-62
2021/10/23 01:22:54;;;;;;;19.50;6.60;;;;;;;7.31;60.35;99204.36;116441;1201;137839;-61
2021/10/23 01:25:23;;;;;;;16.40;7.20;;;;;;;7.25;60.80;99205.49;116534;1202;22317;-61
2021/10/23 01:27:52;;;;;;;15.30;6.40;;;;;;;7.20;60.64;99202.33;116483;1202;22404;-62
2021/10/23 01:30:23;;;;;;;14.20;6.40;;;;;;;7.16;60.97;99201.83;116478;1201;137884;-61
2021/10/23 01:32:51;;;;;;;12.10;6.80;;;;;;;7.11;61.09;99197.28;116550;1201;22518;-62
2021/10/23 01:35:23;;;;;;;14.50;6.80;;;;;;;7.09;61.37;99198.50;116433;1201;137257;-62
2021/10/23 01:37:51;;;;;;;14.30;6.20;;;;;;;7.08;61.53;99198.79;116583;1201;22323;-62
2021/10/23 01:40:26;;;;;;;16.90;7.30;;;;;;;7.05;61.64;99195.63;116569;1201;23036;-63
2021/10/23 01:42:55;;;;;;;15.00;7.40;;;;;;;7.03;61.60;99193.80;116424;1201;137436;-63
2021/10/23 01:45:23;;;;;;;17.50;7.90;;;;;;;7.01;61.71;99193.05;116650;1200;22341;-63
2021/10/23 01:47:52;;;;;;;17.20;8.10;;;;;;;6.99;61.93;99194.80;116460;1197;138226;-63
2021/10/23 01:50:22;;;;;;;16.10;8.30;;;;;;;6.97;61.76;99189.59;116582;1201;22349;-63
2021/10/23 01:52:52;;;;;;;18.50;8.50;;;;;;;6.94;61.93;99189.00;116462;1201;137712;-62
2021/10/23 01:55:20;;;;;;;14.60;7.10;;;;;;;6.88;62.09;99184.14;116540;1201;23154;-64
2021/10/23 01:57:48;;;;;;;15.10;7.40;;;;;;;6.86;61.97;99192.81;116515;1195;23147;-63
2021/10/23 02:00:17;;;;;;;15.00;7.10;;;;;;;6.80;62.29;99188.59;116478;1200;138388;-62
2021/10/23 02:02:45;;;;;;;15.80;7.80;;;;;;;6.80;62.50;99192.19;116511;1201;22338;-62
2021/10/23 02:05:14;;;;;;;16.70;8.00;;;;;;;6.78;62.29;99193.02;116423;1201;138067;-62
2021/10/23 02:07:42;;;;;;;15.50;7.90;;;;;;;6.73;62.36;99190.45;116528;1201;22299;-62
2021/10/23 02:10:10;;;;;;;15.20;7.10;;;;;;;6.70;62.50;99188.89;116548;1196;22310;-62
2021/10/23 02:12:38;;;;;;;18.40;7.10;;;;;;;6.65;62.51;99184.61;116434;1201;138356;-62
2021/10/23 02:15:06;;;;;;;13.60;6.60;;;;;;;6.65;62.68;99193.64;116562;1201;22310;-62
2021/10/23 02:17:34;;;;;;;14.60;6.90;;;;;;;6.64;62.56;99193.63;116424;1201;139816;-63
2021/10/23 02:20:05;;;;;;;15.70;7.20;;;;;;;6.64;62.64;99189.58;116541;1201;22324;-62
2021/10/23 02:22:33;;;;;;;11.70;7.00;;;;;;;6.64;62.71;99188.36;116470;1201;138038;-62
2021/10/23 02:25:02;;;;;;;15.90;6.80;;;;;;;6.63;63.06;99188.80;116616;1200;23172;-62
2021/10/23 02:27:30;;;;;;;12.80;6.90;;;;;;;6.63;63.06;99183.55;116484;1201;22358;-63
2021/10/23 02:29:58;;;;;;;12.80;6.40;;;;;;;6.65;62.79;99190.66;116485;1195;137665;-63
2021/10/23 02:32:27;;;;;;;18.50;6.80;;;;;;;6.65;62.96;99197.11;116568;1201;22759;-63
2021/10/23 02:34:55;;;;;;;26.00;7.90;;;;;;;6.67;62.93;99204.08;116455;1193;137683;-63
2021/10/23 02:37:25;;;;;;;18.70;6.70;;;;;;;6.67;62.87;99202.45;116644;1201;22320;-63
2021/10/23 02:39:53;;;;;;;14.10;6.90;;;;;;;6.67;63.04;99208.85;116504;1200;22360;-63
2021/10/23 02:42:21;;;;;;;14.00;6.40;;;;;;;6.67;63.17;99210.63;116417;1201;137475;-63
2021/10/23 02:44:49;;;;;;;11.70;6.90;;;;;;;6.69;63.15;99217.44;116554;1201;22289;-62
2021/10/23 02:47:17;;;;;;;14.10;6.20;;;;;;;6.70;62.99;99218.13;116479;1201;140841;-62
2021/10/23 02:49:45;;;;;;;16.60;6.80;;;;;;;6.71;63.20;99223.08;116567;1201;22199;-62
2021/10/23 02:52:13;;;;;;;14.30;6.60;;;;;;;6.71;63.01;99218.48;116633;1201;23297;-62
2021/10/23 02:54:42;;;;;;;15.00;6.60;;;;;;;6.72;63.18;99219.25;116408;1201;137609;-62
2021/10/23 02:57:10;;;;;;;18.40;6.50;;;;;;;6.73;63.25;99217.16;116584;1201;22401;-61
2021/10/23 02:59:40;;;;;;;15.40;6.60;;;;;;;6.74;63.08;99216.80;116476;1201;138706;-63
2021/10/23 03:02:08;;;;;;;14.40;6.30;;;;;;;6.76;63.32;99219.27;116559;1201;22313;-62
2021/10/23 03:04:36;;;;;;;15.70;6.40;;;;;;;6.79;63.03;99213.84;116434;1195;137875;-63
2021/10/23 03:07:04;;;;;;;13.70;6.30;;;;;;;6.78;63.18;99212.84;116623;1201;22321;-63
2021/10/23 03:09:32;;;;;;;16.40;5.40;;;;;;;6.80;63.22;99209.58;116543;1201;23508;-63
2021/10/23 03:12:02;;;;;;;14.30;6.20;;;;;;;6.81;62.98;99206.57;116441;1202;137527;-62
2021/10/23 03:14:50;;;;;;;19.90;6.70;;;;;;;6.81;62.91;99206.61;116569;1201;22328;-63
2021/10/23 03:17:18;;;;;;;13.80;5.90;;;;;;;6.81;62.84;99208.15;116374;1202;138340;-62
2021/10/23 03:19:50;;;;;;;11.10;5.80;;;;;;;6.81;62.79;99210.48;116493;1201;22400;-62
2021/10/23 03:22:18;;;;;;;15.10;5.60;;;;;;;6.82;62.73;99205.63;116590;1201;22441;-62
2021/10/23 03:24:46;;;;;;;11.90;5.70;;;;;;;6.82;62.62;99204.91;116452;1201;139095;-62
2021/10/23 03:27:18;;;;;;;19.50;6.70;;;;;;;6.83;62.36;99202.88;116576;1201;22327;-62
2021/10/23 03:29:47;;;;;;;13.80;7.00;;;;;;;6.85;62.28;99204.70;116469;1201;138443;-62
2021/10/23 03:32:16;;;;;;;14.50;6.50;;;;;;;6.86;62.16;99205.88;116565;1201;22242;-63
2021/10/23 03:34:44;;;;;;;14.00;6.00;;;;;;;6.87;62.13;99207.78;116403;1201;138387;-63
2021/10/23 03:37:12;;;;;;;17.50;6.20;;;;;;;6.88;61.89;99209.80;116581;1201;22299;-64
2021/10/23 03:39:42;;;;;;;15.00;6.60;;;;;;;6.89;61.65;99212.66;116548;1201;22313;-63
2021/10/23 03:42:11;;;;;;;15.70;6.10;;;;;;;6.91;61.83;99207.91;116504;1201;138458;-63
2021/10/23 03:44:40;;;;;;;12.20;5.60;;;;;;;6.93;61.40;99212.42;116530;1201;22891;-63
2021/10/23 03:47:10;;;;;;;17.40;6.10;;;;;;;6.96;61.29;99213.52;116449;1201;140022;-64
2021/10/23 03:49:42;;;;;;;13.90;5.40;;;;;;;6.99;61.25;99215.98;116550;1201;22307;-64
2021/10/23 03:52:10;;;;;;;15.50;6.20;;;;;;;7.02;61.02;99216.20;116577;1201;22949;-64
2021/10/23 03:54:38;;;;;;;12.70;5.80;;;;;;;7.05;60.88;99212.41;116426;1200;138113;-63
2021/10/23 03:57:07;;;;;;;15.80;6.20;;;;;;;7.07;60.66;99202.73;116514;1201;22248;-63
2021/10/23 03:59:36;;;;;;;12.30;6.40;;;;;;;7.13;60.44;99210.58;116401;1201;138051;-63
2021/10/23 04:02:04;;;;;;;11.60;4.90;;;;;;;7.15;60.31;99209.87;116503;1201;22317;-63
2021/10/23 04:04:33;;;;;;;15.20;5.40;;;;;;;7.18;60.12;99216.27;116553;1201;22149;-63
2021/10/23 04:07:02;;;;;;;13.60;5.70;;;;;;;7.19;60.14;99212.13;116522;1201;138021;-63
2021/10/23 04:09:30;;;;;;;17.50;5.80;;;;;;;7.19;60.14;99211.91;116534;1201;22311;-63
2021/10/23 04:12:20;;;;;;;10.70;5.00;;;;;;;7.19;60.04;99211.33;116388;1194;136698;-63
2021/10/23 04:14:48;;;;;;;15.90;6.40;;;;;;;7.16;59.92;99209.67;116611;1201;22234;-63
2021/10/23 04:17:33;;;;;;;12.50;5.50;;;;;;;7.15;59.79;99212.11;116429;1201;137429;-62
2021/10/23 04:20:03;;;;;;;15.70;7.40;;;;;;;7.16;59.83;99207.35;116562;1201;22362;-61
2021/10/23 04:22:31;;;;;;;17.00;6.00;;;;;;;7.16;59.81;99211.96;116597;1201;23018;-62
2021/10/23 04:25:01;;;;;;;13.50;5.80;;;;;;;7.17;59.60;99215.12;116523;1200;137256;-62
2021/10/23 04:27:29;;;;;;;12.00;5.10;;;;;;;7.16;59.52;99216.13;116494;1201;22368;-63
2021/10/23 04:29:57;;;;;;;11.70;5.30;;;;;;;7.15;59.64;99219.15;116565;1201;137293;-62
2021/10/23 04:32:28;;;;;;;13.90;5.60;;;;;;;7.15;59.24;99220.66;116516;1202;22384;-61
2021/10/23 04:34:56;;;;;;;15.50;5.00;;;;;;;7.15;59.17;99220.48;116466;1201;138691;-62
2021/10/23 04:37:25;;;;;;;13.00;4.90;;;;;;;7.15;59.16;99226.23;116559;1201;23409;-62
2021/10/23 04:39:53;;;;;;;17.70;5.50;;;;;;;7.15;59.12;99230.13;115184;1201;22478;-63
2021/10/23 04:42:21;;;;;;;19.00;6.20;;;;;;;7.15;58.98;99229.20;116285;1198;137283;-65
2021/10/23 04:44:49;;;;;;;13.70;5.60;;;;;;;7.12;58.93;99232.52;116481;1201;22986;-65
2021/10/23 04:47:20;;;;;;;15.50;5.80;;;;;;;7.14;59.06;99245.06;116481;1200;137894;-63
2021/10/23 04:49:51;;;;;;;13.80;5.70;;;;;;;7.12;59.17;99252.73;116542;1201;22597;-63
2021/10/23 04:52:19;;;;;;;15.40;6.50;;;;;;;7.11;59.03;99250.92;116560;1201;22487;-63
2021/10/23 04:54:47;;;;;;;11.20;5.30;;;;;;;7.09;58.92;99253.27;112203;1201;136972;-62
2021/10/23 04:57:15;;;;;;;10.30;5.20;;;;;;;7.09;59.03;99254.36;116373;1187;22268;-63
2021/10/23 04:59:44;;;;;;;15.10;4.80;;;;;;;7.09;59.04;99253.53;116409;1201;136709;-63
2021/10/23 05:02:12;;;;;;;9.60;4.70;;;;;;;7.09;58.87;99251.96;116584;1201;22326;-63
2021/10/23 05:04:40;;;;;;;10.50;4.60;;;;;;;7.09;59.07;99251.81;116443;1195;137199;-63
2021/10/23 05:07:08;;;;;;;18.30;5.80;;;;;;;7.09;59.04;99255.98;114458;1195;22451;-62
2021/10/23 05:09:36;;;;;;;11.40;6.10;;;;;;;7.10;59.13;99253.55;116454;1201;22318;-62
2021/10/23 05:12:05;;;;;;;17.50;6.00;;;;;;;7.11;58.93;99249.99;116439;1201;137092;-63
2021/10/23 05:14:53;;;;;;;10.80;5.40;;;;;;;7.12;58.79;99258.27;116566;1201;22343;-63
2021/10/23 05:17:21;;;;;;;19.70;6.00;;;;;;;7.13;58.72;99264.30;116506;1201;137032;-63
2021/10/23 05:19:50;;;;;;;10.60;5.80;;;;;;;7.15;58.56;99273.48;116582;1201;22421;-63
2021/10/23 05:22:18;;;;;;;10.70;5.70;;;;;;;7.16;58.68;99275.23;116611;1201;22401;-63
2021/10/23 05:24:47;;;;;;;21.10;6.50;;;;;;;7.18;58.52;99279.73;116493;1201;138136;-63
2021/10/23 05:27:15;;;;;;;21.10;9.50;;;;;;;7.20;58.47;99282.05;116628;1201;22243;-63
2021/10/23 05:29:43;;;;;;;27.40;11.80;;;;;;;7.22;58.52;99286.02;116514;1201;137903;-63
2021/10/23 05:32:11;;;;;;;38.30;17.30;;;;;;;7.21;58.45;99287.16;116596;1201;22450;-63
2021/10/23 05:34:39;;;;;;;55.00;23.30;;;;;;;7.20;58.57;99291.70;116450;1201;137474;-63
2021/10/23 05:37:07;;;;;;;48.60;21.90;;;;;;;7.18;58.52;99291.66;116589;1201;22263;-63
2021/10/23 05:39:35;;;;;;;72.50;33.30;;;;;;;7.16;58.49;99291.99;116622;1201;23274;-63
2021/10/23 05:42:03;;;;;;;69.40;30.70;;;;;;;7.19;58.36;99296.55;116481;1201;137565;-63
2021/10/23 05:44:43;;;;;;;84.70;36.10;;;;;;;7.19;58.66;99299.36;116672;1201;22865;-64
2021/10/23 05:47:11;;;;;;;71.70;29.10;;;;;;;7.22;58.36;99303.70;116430;1201;137421;-63
2021/10/23 05:49:40;;;;;;;79.30;33.90;;;;;;;7.26;58.49;99310.44;116550;1201;22385;-64
2021/10/23 05:52:08;;;;;;;105.70;46.00;;;;;;;7.31;58.61;99311.25;116591;1201;22332;-63
2021/10/23 05:54:56;;;;;;;80.70;34.30;;;;;;;7.38;58.26;99308.98;116510;1201;138190;-61
2021/10/23 05:57:24;;;;;;;49.40;23.00;;;;;;;7.46;58.48;99306.34;116606;1201;23106;-64
2021/10/23 05:59:53;;;;;;;46.40;18.10;;;;;;;7.55;58.12;99305.23;116530;1201;137043;-64
2021/10/23 06:02:26;;;;;;;45.80;18.20;;;;;;;7.62;58.18;99303.85;116610;1200;22910;-64
2021/10/23 06:04:59;;;;;;;35.60;15.90;;;;;;;7.70;57.70;99305.19;116475;1201;138134;-64
2021/10/23 06:07:39;;;;;;;30.60;13.60;;;;;;;7.78;57.70;99306.20;116578;1201;22843;-64
2021/10/23 06:10:27;;;;;;;;;;;;;;;7.90;57.33;99310.79;116617;1200;22396;-64
2021/10/23 06:12:55;;;;;;;24.10;8.40;;;;;;;7.97;57.17;99317.68;116384;1201;124042;-64
2021/10/23 06:15:23;;;;;;;18.70;7.70;;;;;;;8.04;57.01;99317.48;116611;1201;22305;-64
2021/10/23 06:17:51;;;;;;;15.80;6.90;;;;;;;8.11;56.67;99315.95;116450;1194;137118;-64
2021/10/23 06:20:39;;;;;;;15.30;6.40;;;;;;;8.19;56.31;99318.81;116577;1201;22378;-64
2021/10/23 06:23:09;;;;;;;12.30;6.30;;;;;;;8.26;56.20;99316.63;116447;1201;137357;-64
2021/10/23 06:25:38;;;;;;;15.40;7.00;;;;;;;8.33;55.97;99323.89;116578;1200;23212;-64
2021/10/23 06:28:20;;;;;;;23.70;7.40;;;;;;;8.40;56.08;99326.31;116565;1201;22345;-64
2021/10/23 06:31:08;;;;;;;;;;;;;;;8.48;55.88;99333.19;116478;1201;137017;-64
2021/10/23 06:33:37;;;;;;;23.00;6.10;;;;;;;8.53;55.86;99330.42;116575;1201;22306;-64
2021/10/23 06:36:05;;;;;;;15.00;6.30;;;;;;;8.60;55.63;99330.64;116476;1201;137860;-64
2021/10/23 06:38:53;;;;;;;20.10;5.80;;;;;;;8.66;55.04;99323.98;116534;1201;22335;-64
2021/10/23 06:41:21;;;;;;;14.90;4.90;;;;;;;8.72;54.75;99329.18;116458;1201;137483;-64
2021/10/23 06:43:49;;;;;;;15.10;6.20;;;;;;;8.77;54.56;99333.56;116582;1201;22247;-64
2021/10/23 06:46:19;;;;;;;18.00;5.30;;;;;;;8.84;54.23;99331.39;116680;1201;23073;-64
2021/10/23 06:48:48;;;;;;;20.90;5.50;;;;;;;8.91;53.90;99332.31;116488;1200;136940;-64
2021/10/23 06:51:16;;;;;;;18.50;4.80;;;;;;;8.97;53.56;99335.64;116575;1201;22334;-63
2021/10/23 06:53:59;;;;;;;12.80;4.10;;;;;;;9.04;53.47;99336.45;116454;1201;138169;-64
2021/10/23 06:56:28;;;;;;;18.80;5.50;;;;;;;9.10;53.42;99335.27;116595;1201;22960;-64
2021/10/23 06:59:11;;;;;;;15.30;5.10;;;;;;;9.17;53.02;99339.39;116411;1202;137553;-64
2021/10/23 07:01:47;;;;;;;22.50;4.40;;;;;;;9.23;53.20;99336.96;116567;1201;22329;-64
2021/10/23 07:04:15;;;;;;;20.20;4.90;;;;;;;9.29;53.06;99338.28;116590;1201;23087;-64
2021/10/23 07:06:43;;;;;;;11.90;3.90;;;;;;;9.36;52.69;99337.83;116476;1200;138245;-64
2021/10/23 07:09:11;;;;;;;16.50;5.10;;;;;;;9.42;52.69;99336.14;116642;1201;22319;-64
2021/10/23 07:11:40;;;;;;;17.60;4.50;;;;;;;9.49;52.68;99338.02;116463;1201;139276;-64
2021/10/23 07:14:08;;;;;;;14.30;4.30;;;;;;;9.55;52.27;99342.20;116631;1201;22377;-64
2021/10/23 07:16:55;;;;;;;;;;;;;;;9.61;51.86;99352.52;116450;1201;138040;-64
2021/10/23 07:19:24;;;;;;;30.40;5.00;;;;;;;9.65;51.72;99355.77;116614;1201;22311;-64
2021/10/23 07:22:00;;;;;;;12.40;3.60;;;;;;;9.70;51.57;99359.45;116596;1201;23484;-64
2021/10/23 07:24:28;;;;;;;11.20;3.80;;;;;;;9.75;51.53;99360.06;116515;1201;137535;-64
2021/10/23 07:26:56;;;;;;;11.70;4.70;;;;;;;9.80;51.42;99357.34;116567;1201;22982;-64
2021/10/23 07:29:24;;;;;;;13.00;5.10;;;;;;;9.84;51.30;99354.21;116525;1201;138408;-64
2021/10/23 07:31:56;;;;;;;13.30;4.00;;;;;;;9.89;51.16;99354.59;116577;1201;23483;-64
2021/10/23 07:36:43;;;;;;;17.80;4.70;;;;;;;10.01;51.33;99352.09;110711;1206;544906;-63
2021/10/23 07:39:11;;;;;;;20.60;4.80;;;;;;;10.06;51.23;99354.86;111998;1205;25090;-63
2021/10/23 07:41:39;;;;;;;38.70;7.00;;;;;;;10.10;50.08;99362.84;111889;1204;136982;-66
2021/10/23 07:44:10;;;;;;;23.30;5.20;;;;;;;10.11;50.09;99369.64;116149;1204;22271;-65
2021/10/23 07:46:39;;;;;;;22.00;4.30;;;;;;;10.12;50.39;99364.27;116210;1204;22280;-64
2021/10/23 07:49:07;;;;;;;14.20;4.30;;;;;;;10.16;50.39;99369.16;116196;1204;137705;-66
2021/10/23 07:51:36;;;;;;;11.30;4.10;;;;;;;10.21;49.93;99372.02;116208;1204;22261;-64
2021/10/23 07:54:04;;;;;;;10.50;4.00;;;;;;;10.25;49.94;99368.93;116180;1204;136740;-64
2021/10/23 07:56:32;;;;;;;12.50;4.50;;;;;;;10.30;50.29;99371.31;116240;1204;23241;-64
2021/10/23 07:59:01;;;;;;;8.80;3.30;;;;;;;10.37;50.13;99366.05;116155;1204;137180;-64
2021/10/23 08:01:29;;;;;;;15.40;4.10;;;;;;;10.43;49.96;99371.38;116247;1204;22414;-64
2021/10/23 08:04:13;;;;;;;21.50;5.10;;;;;;;10.51;49.95;99378.35;116250;1204;22401;-64
2021/10/23 08:06:46;;;;;;;7.00;3.40;;;;;;;10.59;49.91;99385.71;116193;1204;137790;-63
2021/10/23 08:09:14;;;;;;;23.30;4.00;;;;;;;10.69;49.73;99385.55;116268;1204;22349;-64
2021/10/23 08:12:03;;;;;;;;;;;;;;;10.77;49.20;99393.70;116173;1204;137628;-64
2021/10/23 08:14:33;;;;;;;20.30;3.00;;;;;;;10.82;48.46;99401.88;116255;1204;23144;-63
2021/10/23 08:17:01;;;;;;;20.30;3.20;;;;;;;10.84;47.79;99400.15;116177;1204;136047;-63
2021/10/23 08:19:30;;;;;;;6.90;2.70;;;;;;;10.84;48.00;99405.01;116222;1204;22286;-64
2021/10/23 08:21:59;;;;;;;6.00;2.50;;;;;;;10.87;47.98;99406.88;116289;1204;22254;-64
2021/10/23 08:24:28;;;;;;;9.10;2.80;;;;;;;10.90;48.08;99411.49;116127;1204;136868;-64
2021/10/23 08:27:16;;;;;;;;;;;;;;;10.94;48.09;99407.81;116269;1204;22387;-64
2021/10/23 08:30:05;;;;;;;10.80;3.40;;;;;;;11.01;47.91;99411.06;116129;1204;123205;-64
2021/10/23 08:32:33;;;;;;;10.30;3.40;;;;;;;11.04;47.81;99412.06;116274;1200;22822;-64
2021/10/23 08:35:01;;;;;;;11.10;3.20;;;;;;;11.05;48.32;99416.77;116117;1204;138668;-64
2021/10/23 08:37:30;;;;;;;11.20;3.70;;;;;;;11.09;48.01;99427.92;116258;1204;23073;-64
2021/10/23 08:39:58;;;;;;;12.30;4.20;;;;;;;11.10;47.73;99432.61;116260;1200;22252;-64
2021/10/23 08:42:26;;;;;;;16.20;3.40;;;;;;;11.09;47.56;99436.75;116129;1198;137446;-64
2021/10/23 08:44:54;;;;;;;10.00;3.20;;;;;;;11.09;47.62;99440.45;116248;1204;22325;-64
2021/10/23 08:47:23;;;;;;;10.80;4.00;;;;;;;11.08;47.30;99435.88;116086;1205;138996;-64
2021/10/23 08:49:52;;;;;;;12.90;3.60;;;;;;;11.07;47.65;99444.80;116206;1205;22309;-63
2021/10/23 08:52:21;;;;;;;17.40;3.40;;;;;;;11.06;47.55;99450.48;116223;1205;23344;-63
2021/10/23 08:54:55;;;;;;;20.20;4.00;;;;;;;11.02;47.14;99451.04;116115;1204;137112;-63
2021/10/23 08:57:26;;;;;;;11.20;4.30;;;;;;;10.96;47.38;99442.55;116219;1204;23100;-63
2021/10/23 09:00:00;;;;;;;17.50;3.30;;;;;;;10.94;47.44;99449.30;116124;1205;138055;-64
2021/10/23 09:02:29;;;;;;;7.50;3.10;;;;;;;10.93;47.67;99458.62;116211;1204;22424;-64
2021/10/23 09:05:20;;;;;;;11.30;3.30;;;;;;;10.94;47.69;99458.20;116161;1204;136967;-64
2021/10/23 09:07:50;;;;;;;14.10;4.10;;;;;;;10.96;47.87;99456.13;116250;1204;22576;-64
2021/10/23 09:10:38;;;;;;;13.60;3.30;;;;;;;11.01;48.04;99460.62;116242;1205;22305;-64
2021/10/23 09:13:11;;;;;;;10.60;3.20;;;;;;;11.05;48.08;99461.48;116068;1205;137915;-64
2021/10/23 09:16:00;;;;;;;;;;;;;;;11.09;47.68;99467.02;116226;1204;22389;-64
2021/10/23 09:18:44;;;;;;;6.20;3.10;;;;;;;11.08;47.81;99468.59;116096;1204;124157;-64
2021/10/23 09:21:30;;;;;;;9.30;3.80;;;;;;;11.07;47.43;99475.79;116250;1204;22500;-64
2021/10/23 09:24:21;;;;;;;10.60;2.70;;;;;;;11.02;47.54;99470.84;116075;1204;137196;-64
2021/10/23 09:26:50;;;;;;;9.70;3.30;;;;;;;10.97;47.11;99473.86;116366;1203;22337;-64
2021/10/23 09:29:20;;;;;;;32.10;6.00;;;;;;;10.92;47.14;99473.27;116275;1201;137490;-64
2021/10/23 09:32:11;;;;;;;9.30;3.20;;;;;;;10.89;47.26;99469.48;116329;1203;22333;-64
2021/10/23 09:34:39;;;;;;;14.50;3.50;;;;;;;10.85;47.32;99467.59;116405;1203;22388;-64
2021/10/23 09:37:07;;;;;;;18.40;3.30;;;;;;;10.81;47.49;99471.89;116209;1203;137601;-64
2021/10/23 09:39:41;;;;;;;18.50;3.00;;;;;;;10.78;47.45;99477.26;116387;1203;22310;-64
2021/10/23 09:42:14;;;;;;;13.00;3.80;;;;;;;10.76;47.42;99475.27;116221;1203;136936;-60
2021/10/23 09:45:00;;;;;;;10.00;3.10;;;;;;;10.77;47.64;99479.15;116348;1203;22997;-60
2021/10/23 09:47:32;;;;;;;7.30;2.60;;;;;;;10.78;47.46;99472.79;116206;1203;137478;-61
2021/10/23 09:50:14;;;;;;;13.40;2.90;;;;;;;10.82;47.64;99475.20;116355;1203;22160;-62
2021/10/23 09:52:56;;;;;;;10.20;3.20;;;;;;;10.85;47.80;99471.30;116367;1203;22325;-62
2021/10/23 09:55:51;;;;;;;8.30;3.20;;;;;;;10.90;47.28;99464.81;116246;1203;138450;-62
2021/10/23 09:58:22;;;;;;;10.00;2.70;;;;;;;10.94;47.16;99466.54;116378;1203;22354;-62
2021/10/23 10:00:55;;;;;;;9.10;2.60;;;;;;;11.00;47.44;99476.16;116210;1203;136790;-62
2021/10/23 10:03:24;;;;;;;8.40;2.90;;;;;;;11.08;46.88;99483.47;116359;1203;23077;-61
2021/10/23 10:05:56;;;;;;;9.60;2.60;;;;;;;11.11;47.29;99479.56;116258;1203;137296;-62
2021/10/23 10:08:44;;;;;;;9.20;3.10;;;;;;;11.13;47.12;99479.90;116332;1202;23277;-62
2021/10/23 10:11:13;;;;;;;21.80;6.20;;;;;;;11.18;47.35;99479.66;116035;1203;137386;-61
2021/10/23 10:14:01;;;;;;;;;;;;;;;11.21;46.29;99484.22;116344;1203;22392;-62
2021/10/23 10:16:31;;;;;;;12.10;3.20;;;;;;;11.22;45.71;99484.23;116182;1203;22301;-62
2021/10/23 10:19:19;;;;;;;9.80;3.10;;;;;;;11.23;45.86;99482.98;116113;1196;137153;-62
2021/10/23 10:21:49;;;;;;;14.00;3.70;;;;;;;11.26;45.43;99477.97;116314;1203;23566;-62
2021/10/23 10:24:23;;;;;;;13.50;3.50;;;;;;;11.28;45.47;99479.34;116190;1203;137019;-59
2021/10/23 10:27:04;;;;;;;10.30;3.10;;;;;;;11.29;45.33;99484.58;116351;1203;22359;-60
2021/10/23 10:29:42;;;;;;;11.30;2.90;;;;;;;11.27;45.20;99489.20;116146;1203;137558;-60
2021/10/23 10:43:18;;;;;;;13.20;3.70;;;;;;;11.10;44.99;99495.60;115855;1207;137819;-61
2021/10/23 10:45:46;;;;;;;9.80;2.60;;;;;;;11.08;44.50;99496.95;115917;1206;22247;-59
2021/10/23 10:48:25;;;;;;;14.80;3.00;;;;;;;11.05;43.68;99498.99;115799;1207;137394;-60
2021/10/23 10:51:14;;;;;;;11.00;2.80;;;;;;;11.02;43.45;99502.95;115923;1206;22354;-60
2021/10/23 10:53:43;;;;;;;9.80;2.70;;;;;;;11.05;43.56;99501.33;115812;1206;137608;-60
2021/10/23 10:56:45;;;;;;;12.50;2.70;;;;;;;11.10;43.25;99498.16;115917;1200;23092;-60
2021/10/23 10:59:13;;;;;;;17.50;2.50;;;;;;;11.17;43.25;99497.66;115955;1200;23618;-61
2021/10/23 11:01:42;;;;;;;10.50;2.40;;;;;;;11.25;43.46;99499.73;115854;1206;137308;-62
2021/10/23 11:04:11;;;;;;;6.40;2.60;;;;;;;11.34;43.53;99497.39;115936;1206;22241;-61
2021/10/23 11:06:49;;;;;;;6.90;2.60;;;;;;;11.42;43.50;99504.25;115831;1206;137835;-61
2021/10/23 11:09:19;;;;;;;8.00;2.70;;;;;;;11.50;43.21;99496.06;115938;1200;22336;-61
2021/10/23 11:11:57;;;;;;;5.40;2.50;;;;;;;11.57;42.73;99503.89;115766;1207;137190;-60
2021/10/23 11:14:31;;;;;;;10.40;3.30;;;;;;;11.62;42.46;99502.51;115938;1206;22362;-61
2021/10/23 11:17:19;;;;;;;11.40;2.50;;;;;;;11.69;41.03;99504.34;115980;1204;137166;-61
2021/10/23 11:19:52;;;;;;;7.60;2.30;;;;;;;11.66;40.16;99496.05;116351;1202;22341;-61
2021/10/23 11:22:31;;;;;;;16.40;5.60;;;;;;;11.61;39.50;99496.45;116391;1203;22347;-61
2021/10/23 11:25:23;;;;;;;16.50;5.20;;;;;;;11.55;39.88;99497.98;116182;1203;139326;-60
2021/10/23 11:28:09;;;;;;;20.00;5.90;;;;;;;11.53;40.11;99510.39;116405;1203;22301;-62
2021/10/23 11:30:42;;;;;;;17.90;3.90;;;;;;;11.51;40.13;99512.88;116211;1203;137433;-62
2021/10/23 11:33:13;;;;;;;17.60;2.80;;;;;;;11.51;40.37;99518.02;116380;1203;22255;-61
2021/10/23 11:35:47;;;;;;;20.50;4.20;;;;;;;11.53;40.58;99516.50;116241;1203;138009;-61
2021/10/23 11:38:26;;;;;;;25.80;2.80;;;;;;;11.58;40.80;99521.85;116329;1203;22268;-62
2021/10/23 11:40:55;;;;;;;13.80;2.60;;;;;;;11.63;40.59;99524.02;116374;1201;22325;-61
2021/10/23 11:43:24;;;;;;;12.30;2.40;;;;;;;11.66;40.37;99529.13;116199;1203;137666;-59
2021/10/23 11:45:52;;;;;;;19.80;3.30;;;;;;;11.68;40.56;99524.92;116248;1203;22335;-59
2021/10/23 11:48:20;;;;;;;5.80;2.30;;;;;;;11.70;40.53;99523.45;116205;1203;137383;-59
2021/10/23 11:50:52;;;;;;;12.30;2.90;;;;;;;11.69;40.42;99527.05;116234;1203;22382;-59
2021/10/23 11:53:27;;;;;;;18.00;2.60;;;;;;;11.70;40.66;99544.84;116284;1203;137301;-61
2021/10/23 11:56:00;;;;;;;6.10;2.40;;;;;;;11.69;40.54;99545.38;116355;1203;23205;-61
2021/10/23 11:58:34;;;;;;;13.00;3.00;;;;;;;11.66;39.90;99552.65;116392;1203;22345;-61